X  Sluiten METAR luchtvaart weer gegevens      LBPD Plovdiv International Airport
Temperatuur
59°F Temperatuur
59°F Dauwpunt
100% Vochtigheid



Wind
2 MPH
3 KM/U
1 M/S
2 KTS



Kalm
N
Huidig weer

Geheel bewolkt Geheel bewolkt
Luchtdruk 1014.9 (hPa) - 29.97 (inHg)
Zicht 6 (mijl) - 9.7 (km)
Vliegveld
Vliegveld code LBPD

Locatie : Plovdiv International Airport
Afstand: 14 (mi)

Metar:
LBPD 191630Z AUTO VRB02KT 9999 OVC020/// 15/15 Q1015 NOSIG

Tijd: 19-05-2024 19:30 EEST